createdAt,value
2022-10-23T00:01:32.896Z,98863.06
2022-10-23T00:04:03.944Z,98854.91
2022-10-23T00:06:33.468Z,98850.31
2022-10-23T00:09:00.484Z,98851.72
2022-10-23T00:11:29.561Z,98858.25
2022-10-23T00:14:01.237Z,98855.25
2022-10-23T00:16:28.783Z,98861.25
2022-10-23T00:18:55.689Z,98860.63
2022-10-23T00:21:23.792Z,98860.16
2022-10-23T00:23:50.586Z,98869.09
2022-10-23T00:26:17.445Z,98866.03
2022-10-23T00:28:47.490Z,98882.16
2022-10-23T00:31:14.260Z,98869.72
2022-10-23T00:33:42.116Z,98862.03
2022-10-23T00:36:12.262Z,98860.66
2022-10-23T00:38:39.362Z,98855.81
2022-10-23T00:41:09.762Z,98860.34
2022-10-23T00:44:04.792Z,98861.19
2022-10-23T00:46:33.353Z,98851.00
2022-10-23T00:49:00.969Z,98855.53
2022-10-23T00:51:34.244Z,98852.53
2022-10-23T00:54:22.795Z,98857.91
2022-10-23T00:56:49.029Z,98839.03
2022-10-23T00:59:15.849Z,98838.84
2022-10-23T01:01:42.747Z,98832.84
2022-10-23T01:04:10.257Z,98820.00
2022-10-23T01:06:45.227Z,98819.78
2022-10-23T01:09:36.658Z,98818.69
2022-10-23T01:12:30.060Z,98819.34
2022-10-23T01:15:27.052Z,98814.19
2022-10-23T01:18:18.632Z,98808.56
2022-10-23T01:20:53.482Z,98816.59
2022-10-23T01:23:55.150Z,98816.66
2022-10-23T01:26:40.673Z,98817.75
2022-10-23T01:29:21.077Z,98816.84
2022-10-23T01:32:17.637Z,98809.66
2022-10-23T01:35:04.729Z,98815.09
2022-10-23T01:37:41.377Z,98802.00
2022-10-23T01:40:22.461Z,98808.19
2022-10-23T01:42:56.639Z,98813.69
2022-10-23T01:45:42.542Z,98807.88
2022-10-23T01:48:15.670Z,98810.84
2022-10-23T01:50:44.079Z,98801.94
2022-10-23T01:53:10.842Z,98798.59
2022-10-23T01:55:39.037Z,98797.50
2022-10-23T01:58:08.354Z,98803.84
2022-10-23T02:00:39.434Z,98790.88
2022-10-23T02:03:07.900Z,98785.44
2022-10-23T02:05:34.905Z,98789.84
2022-10-23T02:08:02.398Z,98786.59
2022-10-23T02:10:49.409Z,98771.09
2022-10-23T02:13:59.780Z,98769.31
2022-10-23T02:16:41.386Z,98776.00
2022-10-23T02:19:39.170Z,98770.84
2022-10-23T02:22:24.414Z,98763.50
2022-10-23T02:24:58.457Z,98762.13
2022-10-23T02:27:52.389Z,98762.16
2022-10-23T02:30:20.143Z,98766.38
2022-10-23T02:32:51.456Z,98763.03
2022-10-23T02:35:21.453Z,98767.53
2022-10-23T02:37:59.875Z,98760.69
2022-10-23T02:40:41.121Z,98752.59
2022-10-23T02:43:22.370Z,98758.56
2022-10-23T02:46:29.811Z,98762.91
2022-10-23T02:49:18.648Z,98750.81
2022-10-23T02:52:01.542Z,98744.19
2022-10-23T02:54:45.204Z,98732.97
2022-10-23T02:57:26.926Z,98739.84
2022-10-23T03:00:07.906Z,98745.63
2022-10-23T03:02:46.954Z,98747.19
2022-10-23T03:05:20.645Z,98741.69
2022-10-23T03:07:47.881Z,98738.19
2022-10-23T03:10:14.889Z,98736.69
2022-10-23T03:12:42.244Z,98742.50
2022-10-23T03:15:12.028Z,98740.03
2022-10-23T03:17:39.095Z,98742.69
2022-10-23T03:20:07.809Z,98740.34
2022-10-23T03:22:34.654Z,98742.03
2022-10-23T03:25:01.437Z,98741.69
2022-10-23T03:29:55.529Z,98721.84
2022-10-23T03:32:22.113Z,98728.63
2022-10-23T03:34:48.738Z,98721.19
2022-10-23T03:37:15.330Z,98723.44
2022-10-23T03:39:42.158Z,98728.81
2022-10-23T03:42:08.825Z,98729.34
2022-10-23T03:44:35.412Z,98745.63
2022-10-23T03:47:02.086Z,98737.97
2022-10-23T03:49:28.942Z,98729.81
2022-10-23T03:51:58.089Z,98730.00
2022-10-23T03:54:27.359Z,98727.22
2022-10-23T03:56:57.371Z,98738.56
2022-10-23T03:59:24.505Z,98728.72
2022-10-23T04:01:51.480Z,98724.22
2022-10-23T04:04:18.416Z,98732.88
2022-10-23T04:06:45.362Z,98729.91
2022-10-23T04:11:39.674Z,98725.59
2022-10-23T04:14:06.254Z,98725.47
2022-10-23T04:16:32.838Z,98723.47
2022-10-23T04:18:59.512Z,98724.59
2022-10-23T04:21:26.154Z,98723.34
2022-10-23T04:23:52.787Z,98732.34
2022-10-23T04:26:19.378Z,98725.84
2022-10-23T04:28:45.999Z,98721.50
2022-10-23T04:31:12.719Z,98723.03
2022-10-23T04:33:39.290Z,98721.00
2022-10-23T04:36:06.486Z,98720.69
2022-10-23T04:38:33.139Z,98724.34
2022-10-23T04:40:59.730Z,98729.81
2022-10-23T04:43:26.331Z,98731.75
2022-10-23T04:45:52.948Z,98734.38
2022-10-23T04:48:25.496Z,98727.03
2022-10-23T04:51:01.101Z,98718.75
2022-10-23T04:53:29.074Z,98712.00
2022-10-23T04:55:58.526Z,98715.59
2022-10-23T04:58:27.072Z,98711.34
2022-10-23T05:00:53.842Z,98715.53
2022-10-23T05:03:22.519Z,98709.00
2022-10-23T05:05:49.102Z,98705.28
2022-10-23T05:08:18.014Z,98708.84
2022-10-23T05:10:44.983Z,98715.34
2022-10-23T05:13:11.576Z,98722.69
2022-10-23T05:18:26.107Z,98703.50
2022-10-23T05:21:00.756Z,98691.84
2022-10-23T05:23:30.507Z,98702.50
2022-10-23T05:25:57.079Z,98683.25
2022-10-23T05:28:24.318Z,98677.34
2022-10-23T05:30:51.245Z,98684.19
2022-10-23T05:33:19.023Z,98690.19
2022-10-23T05:35:45.847Z,98681.31
2022-10-23T05:38:14.526Z,98684.72
2022-10-23T05:40:41.139Z,98675.53
2022-10-23T05:43:07.779Z,98679.38
2022-10-23T05:45:34.459Z,98680.34
2022-10-23T05:48:11.005Z,98681.84
2022-10-23T05:50:47.715Z,98680.72
2022-10-23T05:53:14.760Z,98684.72
2022-10-23T05:55:41.336Z,98675.94
2022-10-23T05:58:07.923Z,98683.84
2022-10-23T06:00:34.523Z,98677.16
2022-10-23T06:03:03.139Z,98678.78
2022-10-23T06:05:31.142Z,98679.03
2022-10-23T06:07:59.634Z,98678.13
2022-10-23T06:10:27.507Z,98674.97
2022-10-23T06:12:54.180Z,98674.69
2022-10-23T06:15:20.772Z,98673.53
2022-10-23T06:17:47.351Z,98668.94
2022-10-23T06:20:14.020Z,98661.03
2022-10-23T06:22:40.891Z,98664.53
2022-10-23T06:25:08.720Z,98656.34
2022-10-23T06:27:35.284Z,98661.97
2022-10-23T06:30:01.896Z,98655.78
2022-10-23T06:32:32.231Z,98660.88
2022-10-23T06:34:58.805Z,98656.81
2022-10-23T06:37:25.388Z,98657.75
2022-10-23T06:39:51.996Z,98654.03
2022-10-23T06:42:18.659Z,98646.22
2022-10-23T06:44:45.213Z,98635.81
2022-10-23T06:47:13.962Z,98643.16
2022-10-23T06:49:40.597Z,98642.03
2022-10-23T06:52:14.236Z,98646.00
2022-10-23T06:54:49.866Z,98649.84
2022-10-23T06:57:16.451Z,98645.13
2022-10-23T06:59:43.023Z,98647.22
2022-10-23T07:02:10.316Z,98647.22
2022-10-23T07:04:36.936Z,98644.75
2022-10-23T07:07:03.537Z,98647.94
2022-10-23T07:09:30.308Z,98643.16
2022-10-23T07:11:56.956Z,98648.09
2022-10-23T07:14:23.587Z,98645.88
2022-10-23T07:16:50.145Z,98653.63
2022-10-23T07:19:16.712Z,98647.09
2022-10-23T07:21:43.336Z,98651.25
2022-10-23T07:24:10.240Z,98652.16
2022-10-23T07:26:36.840Z,98656.63
2022-10-23T07:29:03.476Z,98658.50
2022-10-23T07:31:30.281Z,98650.81
2022-10-23T07:33:56.912Z,98654.06
2022-10-23T07:36:23.584Z,98652.50
2022-10-23T07:38:51.300Z,98647.66
2022-10-23T07:41:18.048Z,98647.75
2022-10-23T07:43:44.748Z,98648.22
2022-10-23T07:46:11.567Z,98640.53
2022-10-23T07:48:39.222Z,98640.38
2022-10-23T07:51:12.340Z,98644.81
2022-10-23T07:53:39.433Z,98646.63
2022-10-23T07:56:24.056Z,98649.91
2022-10-23T07:58:53.638Z,98644.88
2022-10-23T08:01:28.257Z,98649.50
2022-10-23T08:03:54.972Z,98643.56
2022-10-23T08:06:21.595Z,98639.16
2022-10-23T08:08:48.179Z,98650.34
2022-10-23T08:11:18.039Z,98643.97
2022-10-23T08:13:44.605Z,98648.53
2022-10-23T08:16:11.218Z,98644.28
2022-10-23T08:18:37.813Z,98639.72
2022-10-23T08:21:04.961Z,98636.16
2022-10-23T08:23:31.814Z,98640.25
2022-10-23T08:26:02.982Z,98634.53
2022-10-23T08:28:29.597Z,98638.66
2022-10-23T08:30:56.282Z,98628.41
2022-10-23T08:33:23.972Z,98628.63
2022-10-23T08:35:51.052Z,98623.59
2022-10-23T08:38:18.048Z,98637.97
2022-10-23T08:40:47.005Z,98641.56
2022-10-23T08:43:18.720Z,98634.38
2022-10-23T08:45:55.463Z,98633.31
2022-10-23T08:48:50.727Z,98628.41
2022-10-23T08:51:25.515Z,98634.50
2022-10-23T08:53:56.801Z,98632.25
2022-10-23T08:56:39.425Z,98635.84
2022-10-23T08:59:28.420Z,98629.94
2022-10-23T09:02:02.979Z,98625.84
2022-10-23T09:04:30.536Z,98619.47
2022-10-23T09:07:54.201Z,98615.34
2022-10-23T09:10:59.465Z,98614.16
2022-10-23T09:13:47.513Z,98616.09
2022-10-23T09:16:46.170Z,98622.59
2022-10-23T09:19:18.888Z,98630.94
2022-10-23T09:21:50.013Z,98630.31
2022-10-23T09:24:20.077Z,98612.66
2022-10-23T09:26:49.921Z,98603.59
2022-10-23T09:29:30.446Z,98599.63
2022-10-23T09:32:04.317Z,98595.28
2022-10-23T09:34:33.509Z,98584.56
2022-10-23T09:37:23.036Z,98588.47
2022-10-23T09:39:49.708Z,98586.63
2022-10-23T09:42:26.262Z,98585.91
2022-10-23T09:44:54.962Z,98572.47
2022-10-23T09:47:25.851Z,98579.63
2022-10-23T09:49:57.205Z,98586.34
2022-10-23T09:52:37.463Z,98585.91
2022-10-23T09:55:21.483Z,98590.25
2022-10-23T09:57:48.206Z,98588.88
2022-10-23T10:00:19.162Z,98580.47
2022-10-23T10:03:06.907Z,98590.84
2022-10-23T10:05:37.167Z,98595.13
2022-10-23T10:08:05.944Z,98597.75
2022-10-23T10:10:46.203Z,98611.84
2022-10-23T10:13:37.082Z,98602.81
2022-10-23T10:16:20.285Z,98605.06
2022-10-23T10:18:57.475Z,98600.63
2022-10-23T10:21:58.160Z,98589.56
2022-10-23T10:24:46.011Z,98582.47
2022-10-23T10:27:54.099Z,98574.63
2022-10-23T10:30:23.231Z,98574.44
2022-10-23T10:33:10.183Z,98567.06
2022-10-23T10:36:00.401Z,98571.22
2022-10-23T10:38:47.157Z,98556.63
2022-10-23T10:41:33.111Z,98550.56
2022-10-23T10:44:18.292Z,98547.31
2022-10-23T10:47:10.196Z,98550.81
2022-10-23T10:50:15.307Z,98540.13
2022-10-23T10:53:00.059Z,98548.25
2022-10-23T10:55:38.349Z,98545.38
2022-10-23T10:58:43.974Z,98540.09
2022-10-23T11:01:42.724Z,98538.09
2022-10-23T11:04:37.923Z,98532.28
2022-10-23T11:07:11.926Z,98527.16
2022-10-23T11:09:39.384Z,98535.09
2022-10-23T11:12:06.141Z,98534.44
2022-10-23T11:14:34.358Z,98528.59
2022-10-23T11:17:47.554Z,98523.28
2022-10-23T11:20:41.378Z,98512.44
2022-10-23T11:23:43.253Z,98500.03
2022-10-23T11:26:32.559Z,98503.97
2022-10-23T11:29:28.815Z,98501.31
2022-10-23T11:32:34.897Z,98484.91
2022-10-23T11:35:30.669Z,98487.75
2022-10-23T11:38:19.064Z,98493.38
2022-10-23T11:43:46.715Z,98486.69
2022-10-23T11:46:31.952Z,98488.41
2022-10-23T11:49:02.171Z,98483.63
2022-10-23T11:51:42.172Z,98496.78
2022-10-23T11:54:11.837Z,98501.44
2022-10-23T11:56:53.374Z,98499.94
2022-10-23T11:59:29.237Z,98495.03
2022-10-23T12:01:58.411Z,98480.25
2022-10-23T12:04:52.578Z,98473.00
2022-10-23T12:07:30.033Z,98457.34
2022-10-23T12:10:05.611Z,98453.03
2022-10-23T12:12:40.954Z,98450.41
2022-10-23T12:15:16.442Z,98446.97
2022-10-23T12:17:44.357Z,98445.16
2022-10-23T12:20:11.319Z,98427.88
2022-10-23T12:23:05.458Z,98442.47
2022-10-23T12:26:02.664Z,98439.06
2022-10-23T12:28:50.216Z,98433.34
2022-10-23T12:31:47.844Z,98431.06
2022-10-23T12:34:42.185Z,98435.00
2022-10-23T12:37:43.924Z,98434.84
2022-10-23T12:40:12.072Z,98423.84
2022-10-23T12:42:38.939Z,98420.84
2022-10-23T12:45:28.865Z,98421.44
2022-10-23T12:47:55.850Z,98420.19
2022-10-23T12:50:29.349Z,98418.66
2022-10-23T12:53:06.573Z,98412.00
2022-10-23T12:58:31.935Z,98406.84
2022-10-23T13:01:03.428Z,98390.94
2022-10-23T13:03:32.017Z,98382.19
2022-10-23T13:06:02.560Z,98370.31
2022-10-23T13:08:42.433Z,98377.31
2022-10-23T13:11:16.082Z,98377.38
2022-10-23T13:13:42.806Z,98373.34
2022-10-23T13:16:21.629Z,98374.97
2022-10-23T13:18:49.233Z,98372.25
2022-10-23T13:21:28.358Z,98368.28
2022-10-23T13:23:56.007Z,98366.88
2022-10-23T13:26:47.756Z,98349.72
2022-10-23T13:29:34.521Z,98342.94
2022-10-23T13:32:24.166Z,98337.88
2022-10-23T13:35:04.090Z,98323.91
2022-10-23T13:37:37.341Z,98318.25
2022-10-23T13:40:23.851Z,98323.38
2022-10-23T13:42:53.081Z,98312.38
2022-10-23T13:45:26.193Z,98310.84
2022-10-23T13:47:53.310Z,98317.03
2022-10-23T13:50:20.511Z,98318.81
2022-10-23T13:52:47.101Z,98318.09
2022-10-23T13:55:25.365Z,98321.06
2022-10-23T13:57:51.986Z,98320.53
2022-10-23T14:00:19.172Z,98314.94
2022-10-23T14:02:46.063Z,98312.75
2022-10-23T14:05:13.038Z,98300.53
2022-10-23T14:07:39.935Z,98315.13
2022-10-23T14:10:07.142Z,98316.22
2022-10-23T14:12:40.777Z,98313.09
2022-10-23T14:15:08.869Z,98307.75
2022-10-23T14:17:35.989Z,98306.47
2022-10-23T14:20:06.046Z,98312.38
2022-10-23T14:22:33.227Z,98307.38
2022-10-23T14:25:00.324Z,98310.50
2022-10-23T14:27:26.971Z,98313.09
2022-10-23T14:29:53.563Z,98303.88
2022-10-23T14:32:20.164Z,98302.31
2022-10-23T14:34:51.596Z,98297.56
2022-10-23T14:37:19.406Z,98298.34
2022-10-23T14:39:49.978Z,98288.25
2022-10-23T14:42:17.059Z,98290.28
2022-10-23T14:44:43.895Z,98276.97
2022-10-23T14:47:10.530Z,98286.69
2022-10-23T14:49:39.905Z,98280.41
2022-10-23T14:52:09.532Z,98279.09
2022-10-23T14:54:36.319Z,98275.31
2022-10-23T14:57:03.642Z,98266.38
2022-10-23T14:59:30.381Z,98259.50
2022-10-23T15:01:56.960Z,98253.13
2022-10-23T15:04:23.762Z,98248.53
2022-10-23T15:06:50.405Z,98244.25
2022-10-23T15:09:19.630Z,98242.81
2022-10-23T15:11:47.200Z,98242.59
2022-10-23T15:14:13.833Z,98238.16
2022-10-23T15:16:43.530Z,98232.25
2022-10-23T15:19:15.465Z,98218.56
2022-10-23T15:21:45.571Z,98216.00
2022-10-23T15:24:12.162Z,98207.59
2022-10-23T15:26:39.476Z,98205.03
2022-10-23T15:29:06.521Z,98205.09
2022-10-23T15:31:38.594Z,98213.09
2022-10-23T15:34:06.251Z,98219.38
2022-10-23T15:36:33.131Z,98212.72
2022-10-23T15:39:00.277Z,98219.50
2022-10-23T15:41:32.654Z,98203.69
2022-10-23T15:44:01.543Z,98202.56
2022-10-23T15:46:28.574Z,98208.03
2022-10-23T15:48:55.318Z,98211.84
2022-10-23T15:51:22.457Z,98206.47
2022-10-23T15:53:49.197Z,98208.41
2022-10-23T15:56:15.825Z,98201.94
2022-10-23T15:58:42.476Z,98188.91
2022-10-23T16:01:09.532Z,98184.56
2022-10-23T16:03:38.401Z,98181.72
2022-10-23T16:06:09.016Z,98184.56
2022-10-23T16:08:36.065Z,98183.63
2022-10-23T16:11:03.949Z,98178.00
2022-10-23T16:13:30.689Z,98171.44
2022-10-23T16:15:57.256Z,98163.03
2022-10-23T16:18:23.831Z,98155.72
2022-10-23T16:20:50.870Z,98152.13
2022-10-23T16:23:17.611Z,98151.84
2022-10-23T16:25:45.510Z,98156.94
2022-10-23T16:28:12.376Z,98168.91
2022-10-23T16:30:43.431Z,98162.28
2022-10-23T16:33:10.083Z,98164.22
2022-10-23T16:35:37.185Z,98172.81
2022-10-23T16:38:04.454Z,98173.69
2022-10-23T16:40:31.255Z,98182.59
2022-10-23T16:42:58.588Z,98175.59
2022-10-23T16:45:25.326Z,98178.81
2022-10-23T16:47:51.966Z,98174.16
2022-10-23T16:50:18.702Z,98181.22
2022-10-23T16:52:45.736Z,98186.53
2022-10-23T16:55:12.953Z,98186.22
2022-10-23T16:57:39.615Z,98179.56
2022-10-23T17:00:07.341Z,98172.50
2022-10-23T17:02:34.311Z,98175.03
2022-10-23T17:05:01.017Z,98169.44
2022-10-23T17:07:27.616Z,98144.91
2022-10-23T17:09:54.270Z,98133.59
2022-10-23T17:12:20.853Z,98145.66
2022-10-23T17:14:47.425Z,98146.19
2022-10-23T17:17:14.113Z,98131.97
2022-10-23T17:19:45.525Z,98144.53
2022-10-23T17:22:13.470Z,98145.44
2022-10-23T17:24:42.389Z,98139.31
2022-10-23T17:27:09.456Z,98142.63
2022-10-23T17:29:36.304Z,98144.66
2022-10-23T17:32:03.627Z,98141.13
2022-10-23T17:34:30.292Z,98160.56
2022-10-23T17:36:57.028Z,98155.94
2022-10-23T17:39:28.171Z,98160.91
2022-10-23T17:41:55.931Z,98167.50
2022-10-23T17:44:22.808Z,98166.19
2022-10-23T17:46:54.260Z,98171.91
2022-10-23T17:49:22.580Z,98180.16
2022-10-23T17:51:57.229Z,98189.97
2022-10-23T17:54:26.330Z,98197.41
2022-10-23T17:56:52.960Z,98207.34
2022-10-23T17:59:19.854Z,98210.28
2022-10-23T18:01:48.115Z,98216.34
2022-10-23T18:04:17.638Z,98218.13
2022-10-23T18:06:49.053Z,98218.66
2022-10-23T18:09:16.432Z,98227.31
2022-10-23T18:11:48.105Z,98234.50
2022-10-23T18:14:18.161Z,98275.16
2022-10-23T18:16:45.602Z,98275.28
2022-10-23T18:19:13.384Z,98294.69
2022-10-23T18:21:40.060Z,98279.66
2022-10-23T18:24:06.811Z,98272.03
2022-10-23T18:26:38.958Z,98260.22
2022-10-23T18:29:09.696Z,98274.88
2022-10-23T18:31:37.665Z,98268.84
2022-10-23T18:34:11.609Z,98277.44
2022-10-23T18:36:40.680Z,98289.22
2022-10-23T18:39:12.305Z,98310.50
2022-10-23T18:41:42.773Z,98323.34
2022-10-23T18:44:15.106Z,98305.75
2022-10-23T18:46:42.121Z,98296.81
2022-10-23T18:49:09.641Z,98285.50
2022-10-23T18:51:37.649Z,98271.91
2022-10-23T18:54:12.885Z,98263.28
2022-10-23T18:56:40.069Z,98262.13
2022-10-23T18:59:11.665Z,98242.00
2022-10-23T19:01:38.348Z,98221.38
2022-10-23T19:04:05.867Z,98230.16
2022-10-23T19:06:35.376Z,98198.09
2022-10-23T19:09:03.817Z,98172.94
2022-10-23T19:11:30.388Z,98180.88
2022-10-23T19:13:56.980Z,98177.47
2022-10-23T19:16:40.429Z,98187.84
2022-10-23T19:19:20.107Z,98191.91
2022-10-23T19:21:47.667Z,98203.09
2022-10-23T19:24:22.043Z,98197.19
2022-10-23T19:26:49.520Z,98201.31
2022-10-23T19:29:22.568Z,98215.06
2022-10-23T19:31:49.672Z,98217.03
2022-10-23T19:34:19.972Z,98232.75
2022-10-23T19:36:52.429Z,98233.56
2022-10-23T19:39:19.612Z,98240.19
2022-10-23T19:41:47.143Z,98243.22
2022-10-23T19:44:15.107Z,98237.59
2022-10-23T19:46:41.721Z,98247.63
2022-10-23T19:49:09.680Z,98246.25
2022-10-23T19:51:36.576Z,98243.72
2022-10-23T19:54:04.184Z,98232.09
2022-10-23T19:56:30.812Z,98237.34
2022-10-23T19:58:57.368Z,98238.09
2022-10-23T20:01:25.250Z,98231.78
2022-10-23T20:03:52.387Z,98246.66
2022-10-23T20:06:23.387Z,98251.53
2022-10-23T20:08:50.491Z,98229.88
2022-10-23T20:11:22.376Z,98229.13
2022-10-23T20:13:50.029Z,98238.13
2022-10-23T20:16:23.356Z,98233.75
2022-10-23T20:18:50.390Z,98241.19
2022-10-23T20:21:17.955Z,98250.59
2022-10-23T20:23:44.973Z,98252.13
2022-10-23T20:26:16.478Z,98247.03
2022-10-23T20:28:48.421Z,98251.28
2022-10-23T20:31:15.992Z,98252.97
2022-10-23T20:33:43.549Z,98273.06
2022-10-23T20:36:32.322Z,98268.97
2022-10-23T20:39:03.101Z,98266.44
2022-10-23T20:41:32.929Z,98261.81
2022-10-23T20:44:00.358Z,98263.00
2022-10-23T20:46:27.337Z,98252.41
2022-10-23T20:48:54.271Z,98250.94
2022-10-23T20:51:23.481Z,98256.75
2022-10-23T20:53:52.935Z,98262.56
2022-10-23T20:56:30.923Z,98250.72
2022-10-23T20:58:59.885Z,98251.56
2022-10-23T21:01:27.735Z,98252.91
2022-10-23T21:03:56.938Z,98268.16
2022-10-23T21:06:26.426Z,98262.66
2022-10-23T21:09:06.458Z,98256.19
2022-10-23T21:11:35.331Z,98250.47
2022-10-23T21:14:03.631Z,98253.75
2022-10-23T21:16:37.113Z,98267.50
2022-10-23T21:19:04.434Z,98250.03
2022-10-23T21:21:33.057Z,98253.84
2022-10-23T21:24:04.683Z,98256.81
2022-10-23T21:26:32.094Z,98260.00
2022-10-23T21:29:13.718Z,98258.19
2022-10-23T21:31:44.897Z,98260.84
2022-10-23T21:37:10.848Z,98279.78
2022-10-23T21:39:33.257Z,98286.25
2022-10-23T21:42:00.100Z,98276.84
2022-10-23T21:44:26.795Z,98275.03
2022-10-23T21:46:53.546Z,98275.66
2022-10-23T21:49:20.256Z,98279.72
2022-10-23T21:51:47.304Z,98288.88
2022-10-23T21:54:17.633Z,98296.31
2022-10-23T21:56:46.722Z,98293.78
2022-10-23T21:59:16.788Z,98294.31
2022-10-23T22:01:46.131Z,98304.22
2022-10-23T22:04:15.019Z,98304.00
2022-10-23T22:06:42.470Z,98291.94
2022-10-23T22:09:12.239Z,98294.47
2022-10-23T22:11:38.997Z,98304.09
2022-10-23T22:14:05.625Z,98301.53
2022-10-23T22:16:32.233Z,98306.72
2022-10-23T22:18:58.957Z,98290.34
2022-10-23T22:21:29.029Z,98292.09
2022-10-23T22:23:58.436Z,98290.38
2022-10-23T22:26:32.338Z,98297.53
2022-10-23T22:29:03.241Z,98296.94
2022-10-23T22:31:33.057Z,98288.47
2022-10-23T22:34:12.958Z,98287.72
2022-10-23T22:36:47.673Z,98291.63
2022-10-23T22:39:14.722Z,98287.47
2022-10-23T22:41:43.468Z,98282.66
2022-10-23T22:44:11.971Z,98286.06
2022-10-23T22:46:38.629Z,98283.91
2022-10-23T22:51:37.721Z,98289.03
2022-10-23T22:54:04.527Z,98281.50
2022-10-23T22:56:32.163Z,98276.41
2022-10-23T22:58:58.753Z,98281.38
2022-10-23T23:01:36.310Z,98278.16
2022-10-23T23:04:13.856Z,98290.53
2022-10-23T23:06:49.696Z,98291.41
2022-10-23T23:09:18.084Z,98288.56
2022-10-23T23:11:51.562Z,98293.25
2022-10-23T23:14:23.187Z,98297.41
2022-10-23T23:16:52.473Z,98311.56
2022-10-23T23:19:19.199Z,98310.66
2022-10-23T23:21:45.857Z,98309.75
2022-10-23T23:24:12.646Z,98305.50
2022-10-23T23:26:39.478Z,98309.66
2022-10-23T23:29:06.243Z,98315.31
2022-10-23T23:31:32.983Z,98305.38
2022-10-23T23:33:59.605Z,98307.88
2022-10-23T23:36:28.526Z,98318.28
2022-10-23T23:38:57.636Z,98313.94
2022-10-23T23:41:26.277Z,98310.28
2022-10-23T23:43:58.049Z,98301.72
2022-10-23T23:46:25.532Z,98294.41
2022-10-23T23:48:52.156Z,98294.53
2022-10-23T23:51:22.617Z,98296.94
2022-10-23T23:53:51.017Z,98292.00
2022-10-23T23:56:18.442Z,98291.19
2022-10-23T23:58:45.098Z,98290.09
